createdAt,value
2019-03-27T00:01:39.739Z,100955.69
2019-03-27T00:04:08.136Z,100950.38
2019-03-27T00:06:36.569Z,100947.70
2019-03-27T00:09:06.410Z,100947.70
2019-03-27T00:11:34.813Z,100949.36
2019-03-27T00:14:03.229Z,100953.14
2019-03-27T00:16:31.619Z,100950.33
2019-03-27T00:19:00.022Z,100941.81
2019-03-27T00:21:28.430Z,100938.28
2019-03-27T00:23:56.826Z,100934.72
2019-03-27T00:26:25.223Z,100932.56
2019-03-27T00:28:53.648Z,100936.80
2019-03-27T00:31:22.041Z,100933.08
2019-03-27T00:33:50.436Z,100930.05
2019-03-27T00:36:18.856Z,100933.02
2019-03-27T00:38:47.259Z,100925.81
2019-03-27T00:41:15.660Z,100927.19
2019-03-27T00:43:44.081Z,100938.78
2019-03-27T00:46:12.466Z,100932.35
2019-03-27T00:48:40.858Z,100927.38
2019-03-27T00:51:09.285Z,100933.07
2019-03-27T00:53:37.687Z,100932.45
2019-03-27T00:56:06.163Z,100938.25
2019-03-27T00:58:34.576Z,100939.00
2019-03-27T01:01:08.399Z,100933.22
2019-03-27T01:03:36.819Z,100936.28
2019-03-27T01:06:06.347Z,100930.79
2019-03-27T01:08:34.809Z,100929.95
2019-03-27T01:11:03.224Z,100934.12
2019-03-27T01:13:31.691Z,100920.89
2019-03-27T01:16:00.160Z,100920.83
2019-03-27T01:18:28.573Z,100918.05
2019-03-27T01:20:56.971Z,100916.73
2019-03-27T01:23:25.442Z,100921.48
2019-03-27T01:25:53.869Z,100919.11
2019-03-27T01:28:25.067Z,100914.05
2019-03-27T01:30:53.461Z,100917.79
2019-03-27T01:33:21.905Z,100921.53
2019-03-27T01:35:50.453Z,100922.17
2019-03-27T01:38:19.611Z,100913.25
2019-03-27T01:40:48.022Z,100910.88
2019-03-27T01:43:16.424Z,100911.11
2019-03-27T01:45:52.933Z,100912.55
2019-03-27T01:48:14.976Z,100910.77
2019-03-27T01:50:43.382Z,100911.95
2019-03-27T01:53:11.776Z,100906.58
2019-03-27T01:55:40.184Z,100902.17
2019-03-27T01:58:08.582Z,100907.76
2019-03-27T02:00:37.429Z,100910.69
2019-03-27T02:03:09.013Z,100907.41
2019-03-27T02:05:37.429Z,100911.67
2019-03-27T02:08:06.091Z,100914.80
2019-03-27T02:10:34.507Z,100915.27
2019-03-27T02:13:02.906Z,100914.80
2019-03-27T02:15:32.899Z,100912.45
2019-03-27T02:18:02.120Z,100908.59
2019-03-27T02:20:30.814Z,100916.38
2019-03-27T02:23:00.180Z,100918.87
2019-03-27T02:25:28.859Z,100910.84
2019-03-27T02:27:57.269Z,100916.80
2019-03-27T02:30:25.777Z,100910.11
2019-03-27T02:32:54.407Z,100909.81
2019-03-27T02:35:22.817Z,100909.88
2019-03-27T02:37:51.208Z,100908.09
2019-03-27T02:40:19.621Z,100906.55
2019-03-27T02:42:48.018Z,100902.63
2019-03-27T02:45:16.447Z,100899.17
2019-03-27T02:47:44.830Z,100899.41
2019-03-27T02:50:13.311Z,100898.81
2019-03-27T02:52:41.739Z,100899.99
2019-03-27T02:55:10.473Z,100892.38
2019-03-27T02:57:38.860Z,100902.13
2019-03-27T03:00:10.290Z,100901.05
2019-03-27T03:02:38.689Z,100906.48
2019-03-27T03:05:08.739Z,100907.06
2019-03-27T03:07:37.395Z,100906.48
2019-03-27T03:10:07.890Z,100907.16
2019-03-27T03:12:36.296Z,100899.20
2019-03-27T03:15:05.620Z,100903.13
2019-03-27T03:17:34.100Z,100906.45
2019-03-27T03:20:02.500Z,100903.70
2019-03-27T03:22:30.913Z,100906.95
2019-03-27T03:24:59.308Z,100904.50
2019-03-27T03:27:27.716Z,100906.63
2019-03-27T03:29:56.120Z,100901.41
2019-03-27T03:32:24.536Z,100902.41
2019-03-27T03:34:52.928Z,100909.91
2019-03-27T03:37:21.341Z,100914.05
2019-03-27T03:39:49.737Z,100919.91
2019-03-27T03:42:18.147Z,100917.14
2019-03-27T03:44:46.552Z,100908.97
2019-03-27T03:47:14.953Z,100918.13
2019-03-27T03:49:43.352Z,100927.69
2019-03-27T03:52:11.851Z,100922.16
2019-03-27T03:54:40.412Z,100922.52
2019-03-27T03:57:09.825Z,100932.08
2019-03-27T03:59:40.034Z,100925.83
2019-03-27T04:02:08.725Z,100934.98
2019-03-27T04:04:37.760Z,100941.38
2019-03-27T04:07:06.192Z,100939.24
2019-03-27T04:09:34.590Z,100937.92
2019-03-27T04:12:02.998Z,100942.06
2019-03-27T04:14:31.405Z,100937.67
2019-03-27T04:17:16.278Z,100940.77
2019-03-27T04:19:29.938Z,100937.12
2019-03-27T04:21:58.361Z,100949.44
2019-03-27T04:24:26.778Z,100947.08
2019-03-27T04:26:55.178Z,100945.16
2019-03-27T04:29:23.578Z,100936.36
2019-03-27T04:31:51.975Z,100944.21
2019-03-27T04:34:20.404Z,100945.37
2019-03-27T04:36:48.803Z,100942.98
2019-03-27T04:39:17.205Z,100936.52
2019-03-27T04:41:45.602Z,100937.45
2019-03-27T04:44:14.012Z,100934.77
2019-03-27T04:46:42.411Z,100938.07
2019-03-27T04:49:10.895Z,100948.75
2019-03-27T04:51:39.290Z,100940.97
2019-03-27T04:54:07.702Z,100948.36
2019-03-27T04:56:36.097Z,100944.09
2019-03-27T04:59:04.598Z,100952.47
2019-03-27T05:01:32.987Z,100950.26
2019-03-27T05:04:01.774Z,100956.27
2019-03-27T05:06:30.171Z,100951.27
2019-03-27T05:08:58.585Z,100960.66
2019-03-27T05:11:27.224Z,100952.55
2019-03-27T05:13:55.636Z,100955.30
2019-03-27T05:16:24.031Z,100956.31
2019-03-27T05:18:52.447Z,100960.04
2019-03-27T05:21:20.840Z,100964.52
2019-03-27T05:23:51.298Z,100967.43
2019-03-27T05:26:19.693Z,100971.52
2019-03-27T05:28:48.107Z,100969.81
2019-03-27T05:31:16.503Z,100975.31
2019-03-27T05:33:45.137Z,100973.09
2019-03-27T05:36:13.540Z,100973.17
2019-03-27T05:38:41.948Z,100974.67
2019-03-27T05:41:10.345Z,100971.97
2019-03-27T05:43:39.075Z,100970.20
2019-03-27T05:46:07.504Z,100972.50
2019-03-27T05:48:35.890Z,100975.69
2019-03-27T05:51:04.296Z,100972.03
2019-03-27T05:53:32.701Z,100976.27
2019-03-27T05:56:01.378Z,100983.70
2019-03-27T05:58:29.785Z,100986.05
2019-03-27T06:00:58.198Z,100992.58
2019-03-27T06:03:26.667Z,100996.57
2019-03-27T06:05:55.074Z,100993.66
2019-03-27T06:08:23.478Z,101005.16
2019-03-27T06:10:51.886Z,101002.71
2019-03-27T06:13:20.287Z,101015.59
2019-03-27T06:15:48.691Z,101015.75
2019-03-27T06:18:17.084Z,101023.02
2019-03-27T06:20:45.499Z,101016.87
2019-03-27T06:23:13.890Z,101027.64
2019-03-27T06:25:42.321Z,101026.02
2019-03-27T06:28:10.718Z,101030.16
2019-03-27T06:30:39.124Z,101026.48
2019-03-27T06:33:07.547Z,101031.20
2019-03-27T06:35:35.957Z,101029.55
2019-03-27T06:38:04.367Z,101024.58
2019-03-27T06:40:32.796Z,101031.47
2019-03-27T06:43:01.200Z,101032.55
2019-03-27T06:45:29.867Z,101034.50
2019-03-27T06:47:58.281Z,101034.88
2019-03-27T06:50:26.708Z,101039.58
2019-03-27T06:52:55.188Z,101037.95
2019-03-27T06:55:23.884Z,101043.94
2019-03-27T06:57:52.335Z,101041.47
2019-03-27T07:00:23.742Z,101038.92
2019-03-27T07:02:52.163Z,101035.38
2019-03-27T07:05:20.567Z,101042.30
2019-03-27T07:07:48.962Z,101041.17
2019-03-27T07:10:18.053Z,101039.80
2019-03-27T07:12:46.458Z,101041.45
2019-03-27T07:15:14.867Z,101049.00
2019-03-27T07:17:43.305Z,101050.91
2019-03-27T07:20:11.950Z,101043.07
2019-03-27T07:22:40.343Z,101042.55
2019-03-27T07:25:09.004Z,101042.34
2019-03-27T07:27:37.407Z,101052.89
2019-03-27T07:30:07.057Z,101057.19
2019-03-27T07:32:35.479Z,101054.30
2019-03-27T07:35:04.550Z,101058.05
2019-03-27T07:37:32.952Z,101054.88
2019-03-27T07:40:01.392Z,101058.66
2019-03-27T07:42:30.223Z,101065.62
2019-03-27T07:44:58.603Z,101064.34
2019-03-27T07:47:27.174Z,101059.52
2019-03-27T07:49:55.590Z,101056.92
2019-03-27T07:52:23.991Z,101064.18
2019-03-27T07:54:52.531Z,101062.94
2019-03-27T07:57:20.940Z,101070.58
2019-03-27T07:59:49.346Z,101070.05
2019-03-27T08:02:18.028Z,101061.36
2019-03-27T08:04:46.431Z,101068.59
2019-03-27T08:07:26.299Z,101062.27
2019-03-27T08:09:45.053Z,101072.14
2019-03-27T08:12:13.476Z,101069.42
2019-03-27T08:14:41.881Z,101067.95
2019-03-27T08:17:10.278Z,101065.14
2019-03-27T08:19:38.706Z,101062.43
2019-03-27T08:22:07.104Z,101061.89
2019-03-27T08:24:35.522Z,101063.97
2019-03-27T08:27:03.949Z,101063.86
2019-03-27T08:29:32.352Z,101052.91
2019-03-27T08:32:00.758Z,101054.81
2019-03-27T08:34:29.194Z,101057.58
2019-03-27T08:36:57.600Z,101062.68
2019-03-27T08:39:26.000Z,101063.78
2019-03-27T08:41:54.436Z,101060.11
2019-03-27T08:44:23.754Z,101065.68
2019-03-27T08:46:52.157Z,101058.00
2019-03-27T08:49:22.437Z,101059.59
2019-03-27T08:51:51.071Z,101070.03
2019-03-27T08:54:19.479Z,101070.16
2019-03-27T08:56:47.910Z,101061.03
2019-03-27T08:59:16.311Z,101064.73
2019-03-27T09:01:44.714Z,101065.19
2019-03-27T09:04:13.149Z,101074.06
2019-03-27T09:06:41.559Z,101069.12
2019-03-27T09:09:10.033Z,101071.04
2019-03-27T09:11:38.462Z,101070.59
2019-03-27T09:14:06.868Z,101073.48
2019-03-27T09:16:35.270Z,101074.01
2019-03-27T09:19:04.106Z,101069.10
2019-03-27T09:21:32.502Z,101071.88
2019-03-27T09:24:00.903Z,101066.45
2019-03-27T09:26:29.339Z,101073.98
2019-03-27T09:28:57.795Z,101063.77
2019-03-27T09:31:26.156Z,101060.64
2019-03-27T09:33:54.579Z,101051.27
2019-03-27T09:36:22.987Z,101053.89
2019-03-27T09:38:51.400Z,101058.89
2019-03-27T09:41:21.423Z,101056.69
2019-03-27T09:43:50.013Z,101070.23
2019-03-27T09:46:18.429Z,101066.56
2019-03-27T09:48:46.862Z,101064.86
2019-03-27T09:51:15.265Z,101057.91
2019-03-27T09:53:43.666Z,101055.91
2019-03-27T09:56:18.956Z,101051.02
2019-03-27T09:58:42.236Z,101060.22
2019-03-27T10:01:10.718Z,101053.74
2019-03-27T10:03:39.149Z,101055.45
2019-03-27T10:06:07.730Z,101058.14
2019-03-27T10:08:36.429Z,101063.94
2019-03-27T10:11:05.106Z,101060.11
2019-03-27T10:13:33.505Z,101061.34
2019-03-27T10:16:01.985Z,101063.23
2019-03-27T10:18:31.168Z,101069.68
2019-03-27T10:20:59.590Z,101074.52
2019-03-27T10:23:27.993Z,101067.41
2019-03-27T10:25:56.398Z,101066.86
2019-03-27T10:28:24.819Z,101060.95
2019-03-27T10:30:53.573Z,101055.06
2019-03-27T10:33:22.170Z,101058.95
2019-03-27T10:35:50.573Z,101062.72
2019-03-27T10:38:18.980Z,101058.45
2019-03-27T10:40:47.410Z,101056.30
2019-03-27T10:43:15.812Z,101064.67
2019-03-27T10:45:44.218Z,101061.13
2019-03-27T10:48:12.646Z,101058.84
2019-03-27T10:50:41.056Z,101058.80
2019-03-27T10:53:09.459Z,101060.25
2019-03-27T10:55:37.899Z,101060.51
2019-03-27T10:58:06.297Z,101057.66
2019-03-27T11:00:34.707Z,101059.64
2019-03-27T11:03:03.124Z,101052.03
2019-03-27T11:05:31.803Z,101054.83
2019-03-27T11:08:00.206Z,101058.27
2019-03-27T11:10:28.629Z,101060.45
2019-03-27T11:12:57.262Z,101050.37
2019-03-27T11:15:25.620Z,101052.42
2019-03-27T11:17:54.052Z,101059.44
2019-03-27T11:20:30.816Z,101048.88
2019-03-27T11:22:52.660Z,101054.27
2019-03-27T11:25:21.100Z,101054.13
2019-03-27T11:27:49.501Z,101053.86
2019-03-27T11:30:18.346Z,101055.44
2019-03-27T11:32:46.774Z,101055.45
2019-03-27T11:35:15.360Z,101058.55
2019-03-27T11:37:43.753Z,101056.70
2019-03-27T11:40:12.464Z,101054.58
2019-03-27T11:42:41.160Z,101050.11
2019-03-27T11:45:10.101Z,101058.10
2019-03-27T11:47:38.529Z,101052.42
2019-03-27T11:50:08.569Z,101047.43
2019-03-27T11:52:36.974Z,101047.97
2019-03-27T11:55:06.354Z,101047.06
2019-03-27T11:57:34.767Z,101044.48
2019-03-27T12:00:04.255Z,101047.30
2019-03-27T12:02:32.687Z,101042.23
2019-03-27T12:05:01.093Z,101044.20
2019-03-27T12:07:29.498Z,101040.23
2019-03-27T12:09:58.228Z,101037.49
2019-03-27T12:12:26.906Z,101044.78
2019-03-27T12:14:55.335Z,101036.94
2019-03-27T12:17:23.745Z,101030.22
2019-03-27T12:19:52.153Z,101037.64
2019-03-27T12:22:20.584Z,101031.54
2019-03-27T12:24:48.984Z,101033.77
2019-03-27T12:27:17.388Z,101041.72
2019-03-27T12:29:45.806Z,101037.45
2019-03-27T12:32:14.215Z,101033.00
2019-03-27T12:34:42.618Z,101036.25
2019-03-27T12:37:11.054Z,101026.69
2019-03-27T12:39:40.938Z,101028.23
2019-03-27T12:42:09.633Z,101024.13
2019-03-27T12:44:38.060Z,101027.81
2019-03-27T12:47:06.457Z,101023.02
2019-03-27T12:49:34.889Z,101019.63
2019-03-27T12:52:05.483Z,101016.80
2019-03-27T12:54:33.657Z,101013.98
2019-03-27T12:57:02.098Z,101020.02
2019-03-27T12:59:30.507Z,101014.38
2019-03-27T13:01:58.907Z,101014.28
2019-03-27T13:04:27.338Z,101020.14
2019-03-27T13:06:55.740Z,101020.98
2019-03-27T13:09:24.138Z,101016.90
2019-03-27T13:11:52.591Z,101010.19
2019-03-27T13:14:20.988Z,101006.64
2019-03-27T13:16:52.182Z,101006.05
2019-03-27T13:19:19.548Z,101007.89
2019-03-27T13:21:48.028Z,101009.64
2019-03-27T13:24:16.735Z,101014.47
2019-03-27T13:26:45.252Z,101008.49
2019-03-27T13:29:13.649Z,101001.11
2019-03-27T13:31:42.060Z,101012.45
2019-03-27T13:34:10.485Z,101007.72
2019-03-27T13:36:40.525Z,101010.37
2019-03-27T13:39:09.097Z,101001.66
2019-03-27T13:41:37.538Z,101002.34
2019-03-27T13:44:05.940Z,100998.34
2019-03-27T13:46:34.347Z,101004.84
2019-03-27T13:49:02.761Z,101002.48
2019-03-27T13:51:40.569Z,100996.52
2019-03-27T13:54:01.366Z,100994.14
2019-03-27T13:56:29.801Z,100996.16
2019-03-27T13:58:58.197Z,100991.28
2019-03-27T14:01:26.611Z,100987.62
2019-03-27T14:03:55.033Z,100992.39
2019-03-27T14:06:23.777Z,100988.64
2019-03-27T14:08:52.181Z,100985.95
2019-03-27T14:11:20.589Z,100991.48
2019-03-27T14:13:49.005Z,100989.93
2019-03-27T14:16:17.416Z,100988.43
2019-03-27T14:18:48.796Z,100980.95
2019-03-27T14:21:15.963Z,100983.95
2019-03-27T14:23:44.679Z,100978.27
2019-03-27T14:26:13.098Z,100969.84
2019-03-27T14:28:41.507Z,100967.05
2019-03-27T14:31:09.987Z,100969.82
2019-03-27T14:33:38.384Z,100967.72
2019-03-27T14:36:06.862Z,100966.98
2019-03-27T14:38:35.554Z,100968.59
2019-03-27T14:41:03.962Z,100966.15
2019-03-27T14:43:32.463Z,100965.72
2019-03-27T14:46:01.217Z,100967.02
2019-03-27T14:48:29.627Z,100970.01
2019-03-27T14:50:58.054Z,100970.03
2019-03-27T14:53:26.459Z,100961.98
2019-03-27T14:55:54.867Z,100968.78
2019-03-27T14:58:23.615Z,100973.63
2019-03-27T15:00:52.043Z,100966.94
2019-03-27T15:03:20.441Z,100964.45
2019-03-27T15:05:48.922Z,100962.57
2019-03-27T15:08:17.336Z,100962.59
2019-03-27T15:10:45.845Z,100970.96
2019-03-27T15:13:15.432Z,100965.93
2019-03-27T15:15:44.056Z,100966.03
2019-03-27T15:18:12.456Z,100954.38
2019-03-27T15:20:40.875Z,100953.16
2019-03-27T15:23:09.298Z,100961.33
2019-03-27T15:25:37.703Z,100963.18
2019-03-27T15:28:06.118Z,100965.57
2019-03-27T15:30:34.554Z,100970.20
2019-03-27T15:33:02.954Z,100967.78
2019-03-27T15:35:31.643Z,100966.45
2019-03-27T15:38:00.139Z,100969.88
2019-03-27T15:40:42.220Z,100968.87
2019-03-27T15:43:10.670Z,100971.33
2019-03-27T15:45:39.064Z,100970.70
2019-03-27T15:48:07.459Z,100967.16
2019-03-27T15:50:35.954Z,100969.09
2019-03-27T15:53:04.605Z,100967.86
2019-03-27T15:55:33.035Z,100967.50
2019-03-27T15:58:01.438Z,100970.98
2019-03-27T16:00:29.910Z,100964.91
2019-03-27T16:02:58.340Z,100962.32
2019-03-27T16:05:26.742Z,100965.69
2019-03-27T16:07:55.145Z,100971.27
2019-03-27T16:10:23.582Z,100966.51
2019-03-27T16:12:51.994Z,100957.38
2019-03-27T16:15:20.394Z,100956.20
2019-03-27T16:17:48.839Z,100947.73
2019-03-27T16:20:17.557Z,100951.06
2019-03-27T16:22:50.994Z,100942.09
2019-03-27T16:25:16.073Z,100944.92
2019-03-27T16:27:44.479Z,100954.42
2019-03-27T16:30:16.895Z,100949.77
2019-03-27T16:32:43.722Z,100946.70
2019-03-27T16:35:12.281Z,100950.67
2019-03-27T16:37:40.717Z,100949.77
2019-03-27T16:40:09.664Z,100950.22
2019-03-27T16:42:38.067Z,100946.05
2019-03-27T16:45:08.858Z,100930.75
2019-03-27T16:47:37.257Z,100944.36
2019-03-27T16:50:09.383Z,100945.05
2019-03-27T16:52:37.819Z,100947.42
2019-03-27T16:55:08.160Z,100949.44
2019-03-27T16:57:36.566Z,100951.48
2019-03-27T17:00:08.128Z,100951.72
2019-03-27T17:02:36.519Z,100950.52
2019-03-27T17:05:06.670Z,100955.67
2019-03-27T17:07:35.099Z,100962.15
2019-03-27T17:10:04.340Z,100962.91
2019-03-27T17:12:32.747Z,100964.52
2019-03-27T17:15:01.174Z,100964.83
2019-03-27T17:17:29.853Z,100967.39
2019-03-27T17:19:58.320Z,100969.06
2019-03-27T17:22:26.748Z,100977.70
2019-03-27T17:24:56.134Z,100984.66
2019-03-27T17:27:24.739Z,100976.99
2019-03-27T17:29:53.167Z,100982.61
2019-03-27T17:32:21.879Z,100985.67
2019-03-27T17:34:51.901Z,100989.55
2019-03-27T17:37:20.603Z,100986.30
2019-03-27T17:39:49.013Z,100994.02
2019-03-27T17:42:17.424Z,100988.63
2019-03-27T17:44:45.865Z,100993.82
2019-03-27T17:47:14.544Z,100990.31
2019-03-27T17:49:42.943Z,100989.90
2019-03-27T17:52:11.385Z,100990.31
2019-03-27T17:54:39.796Z,100998.56
2019-03-27T17:57:08.532Z,100994.85
2019-03-27T17:59:36.959Z,100999.02
2019-03-27T18:02:05.364Z,101002.77
2019-03-27T18:04:33.770Z,101003.05
2019-03-27T18:07:02.192Z,101009.02
2019-03-27T18:09:30.604Z,101008.88
2019-03-27T18:11:59.022Z,101014.28
2019-03-27T18:14:27.425Z,101015.89
2019-03-27T18:16:55.830Z,101021.93
2019-03-27T18:19:24.252Z,101020.00
2019-03-27T18:22:06.659Z,101028.50
2019-03-27T18:24:22.772Z,101025.22
2019-03-27T18:26:51.203Z,101024.66
2019-03-27T18:29:19.593Z,101029.38
2019-03-27T18:31:47.989Z,101027.05
2019-03-27T18:34:16.418Z,101030.45
2019-03-27T18:36:45.128Z,101026.34
2019-03-27T18:39:13.531Z,101027.98
2019-03-27T18:41:41.953Z,101037.28
2019-03-27T18:44:10.345Z,101035.81
2019-03-27T18:46:38.746Z,101047.08
2019-03-27T18:49:10.277Z,101047.48
2019-03-27T18:51:37.307Z,101048.75
2019-03-27T18:54:05.983Z,101045.59
2019-03-27T18:56:34.402Z,101049.20
2019-03-27T18:59:02.803Z,101055.16
2019-03-27T19:01:31.207Z,101054.87
2019-03-27T19:03:59.640Z,101056.14
2019-03-27T19:06:28.695Z,101058.11
2019-03-27T19:08:57.087Z,101054.22
2019-03-27T19:11:25.498Z,101059.23
2019-03-27T19:13:53.895Z,101058.53
2019-03-27T19:16:22.292Z,101069.32
2019-03-27T19:18:50.729Z,101062.45
2019-03-27T19:21:19.128Z,101064.53
2019-03-27T19:23:47.531Z,101068.88
2019-03-27T19:26:16.918Z,101076.52
2019-03-27T19:28:45.321Z,101075.98
2019-03-27T19:31:14.059Z,101080.83
2019-03-27T19:33:42.839Z,101080.23
2019-03-27T19:36:11.238Z,101093.58
2019-03-27T19:38:39.640Z,101097.71
2019-03-27T19:41:08.065Z,101102.70
2019-03-27T19:43:36.465Z,101106.05
2019-03-27T19:46:05.050Z,101110.05
2019-03-27T19:48:33.472Z,101106.08
2019-03-27T19:51:01.877Z,101115.55
2019-03-27T19:53:30.298Z,101111.89
2019-03-27T19:55:58.770Z,101121.83
2019-03-27T19:58:27.100Z,101114.61
2019-03-27T20:00:55.506Z,101122.95
2019-03-27T20:03:23.938Z,101125.37
2019-03-27T20:05:52.335Z,101137.19
2019-03-27T20:08:20.744Z,101137.30
2019-03-27T20:10:49.162Z,101140.48
2019-03-27T20:13:17.560Z,101140.25
2019-03-27T20:15:45.961Z,101145.35
2019-03-27T20:18:14.396Z,101141.88
2019-03-27T20:20:42.790Z,101145.17
2019-03-27T20:23:15.072Z,101141.11
2019-03-27T20:25:41.340Z,101139.06
2019-03-27T20:28:09.742Z,101138.57
2019-03-27T20:30:38.140Z,101144.77
2019-03-27T20:33:06.564Z,101138.61
2019-03-27T20:35:35.266Z,101149.53
2019-03-27T20:38:03.662Z,101143.06
2019-03-27T20:40:32.173Z,101151.02
2019-03-27T20:43:00.572Z,101146.84
2019-03-27T20:45:28.973Z,101146.89
2019-03-27T20:47:57.413Z,101141.73
2019-03-27T20:50:27.117Z,101151.13
2019-03-27T20:52:55.684Z,101153.45
2019-03-27T20:55:30.209Z,101152.84
2019-03-27T20:57:54.213Z,101151.81
2019-03-27T21:00:22.851Z,101156.77
2019-03-27T21:02:51.270Z,101156.14
2019-03-27T21:05:19.681Z,101156.29
2019-03-27T21:07:48.076Z,101158.91
2019-03-27T21:10:16.647Z,101158.69
2019-03-27T21:12:45.055Z,101163.31
2019-03-27T21:15:13.870Z,101168.52
2019-03-27T21:17:42.237Z,101170.30
2019-03-27T21:20:11.074Z,101175.11
2019-03-27T21:22:39.481Z,101174.56
2019-03-27T21:25:09.799Z,101184.45
2019-03-27T21:27:38.421Z,101178.22
2019-03-27T21:30:11.240Z,101182.79
2019-03-27T21:32:39.673Z,101182.09
2019-03-27T21:35:08.335Z,101180.95
2019-03-27T21:37:36.759Z,101192.19
2019-03-27T21:40:08.175Z,101192.47
2019-03-27T21:42:36.589Z,101190.09
2019-03-27T21:45:09.261Z,101185.97
2019-03-27T21:47:37.709Z,101184.91
2019-03-27T21:50:07.678Z,101187.30
2019-03-27T21:52:36.114Z,101187.97
2019-03-27T21:55:06.756Z,101199.55
2019-03-27T21:57:35.200Z,101199.75
2019-03-27T22:00:04.866Z,101206.09
2019-03-27T22:02:33.319Z,101209.03
2019-03-27T22:05:01.753Z,101212.64
2019-03-27T22:07:30.173Z,101206.86
2019-03-27T22:09:58.627Z,101215.05
2019-03-27T22:12:27.061Z,101211.19
2019-03-27T22:14:55.489Z,101215.11
2019-03-27T22:17:23.936Z,101215.80
2019-03-27T22:19:52.354Z,101214.72
2019-03-27T22:22:20.782Z,101219.50
2019-03-27T22:24:49.241Z,101225.15
2019-03-27T22:27:17.993Z,101226.51
2019-03-27T22:29:46.427Z,101225.56
2019-03-27T22:32:15.290Z,101219.89
2019-03-27T22:34:44.459Z,101219.10
2019-03-27T22:37:13.031Z,101224.58
2019-03-27T22:39:41.846Z,101221.92
2019-03-27T22:42:10.280Z,101224.66
2019-03-27T22:44:38.716Z,101220.67
2019-03-27T22:47:07.174Z,101225.75
2019-03-27T22:49:35.608Z,101213.53
2019-03-27T22:52:04.030Z,101225.88
2019-03-27T22:54:32.481Z,101223.59
2019-03-27T22:57:00.911Z,101226.56
2019-03-27T22:59:29.341Z,101220.54
2019-03-27T23:01:57.778Z,101222.17
2019-03-27T23:04:26.215Z,101218.30
2019-03-27T23:06:54.648Z,101217.51
2019-03-27T23:09:23.090Z,101212.40
2019-03-27T23:11:51.521Z,101211.80
2019-03-27T23:14:19.956Z,101211.77
2019-03-27T23:16:48.399Z,101209.86
2019-03-27T23:19:16.832Z,101215.75
2019-03-27T23:21:45.328Z,101217.19
2019-03-27T23:24:13.778Z,101215.82
2019-03-27T23:26:42.210Z,101213.20
2019-03-27T23:29:10.641Z,101211.66
2019-03-27T23:31:39.170Z,101219.66
2019-03-27T23:34:07.597Z,101220.23
2019-03-27T23:36:36.679Z,101221.07
2019-03-27T23:39:07.437Z,101212.50
2019-03-27T23:41:35.933Z,101216.59
2019-03-27T23:44:04.510Z,101216.09
2019-03-27T23:46:32.972Z,101222.55
2019-03-27T23:49:01.489Z,101226.81
2019-03-27T23:51:29.907Z,101220.45
2019-03-27T23:53:58.372Z,101224.01
2019-03-27T23:56:28.779Z,101211.34
2019-03-27T23:58:57.210Z,101208.03
